createdAt,value
2022-10-22T00:01:00.283Z,19.58
2022-10-22T00:02:04.432Z,21.80
2022-10-22T00:03:07.715Z,21.73
2022-10-22T00:04:10.355Z,21.98
2022-10-22T00:05:12.732Z,20.30
2022-10-22T00:06:15.073Z,22.13
2022-10-22T00:07:18.462Z,22.52
2022-10-22T00:08:20.736Z,21.05
2022-10-22T00:09:23.026Z,24.10
2022-10-22T00:10:25.200Z,23.25
2022-10-22T00:11:27.545Z,21.40
2022-10-22T00:12:29.855Z,22.48
2022-10-22T00:13:32.088Z,25.35
2022-10-22T00:14:34.442Z,21.45
2022-10-22T00:15:36.715Z,21.13
2022-10-22T00:16:39.546Z,20.40
2022-10-22T00:17:42.241Z,20.70
2022-10-22T00:18:44.796Z,20.63
2022-10-22T00:19:47.013Z,21.45
2022-10-22T00:20:49.585Z,21.83
2022-10-22T00:21:51.867Z,21.95
2022-10-22T00:22:54.226Z,26.05
2022-10-22T00:23:56.950Z,20.90
2022-10-22T00:24:59.247Z,19.23
2022-10-22T00:26:01.584Z,19.13
2022-10-22T00:27:04.252Z,22.25
2022-10-22T00:28:06.590Z,21.25
2022-10-22T00:29:08.855Z,21.92
2022-10-22T00:30:11.855Z,22.60
2022-10-22T00:31:15.857Z,23.50
2022-10-22T00:33:20.447Z,21.75
2022-10-22T00:34:23.259Z,22.33
2022-10-22T00:35:25.556Z,20.15
2022-10-22T00:36:28.182Z,20.52
2022-10-22T00:37:30.653Z,21.55
2022-10-22T00:38:33.437Z,22.40
2022-10-22T00:39:35.725Z,21.73
2022-10-22T00:40:38.007Z,23.42
2022-10-22T00:41:40.265Z,24.40
2022-10-22T00:42:43.278Z,21.50
2022-10-22T00:44:33.341Z,23.25
2022-10-22T00:45:35.822Z,22.75
2022-10-22T00:46:38.096Z,21.40
2022-10-22T00:48:01.541Z,20.55
2022-10-22T00:49:04.593Z,19.88
2022-10-22T00:50:13.069Z,21.70
2022-10-22T00:51:15.266Z,24.52
2022-10-22T00:52:17.986Z,22.30
2022-10-22T00:53:25.768Z,23.42
2022-10-22T00:54:28.146Z,23.38
2022-10-22T00:55:32.543Z,20.05
2022-10-22T00:56:35.005Z,22.58
2022-10-22T00:57:37.718Z,21.75
2022-10-22T00:58:45.755Z,20.92
2022-10-22T00:59:49.021Z,24.52
2022-10-22T01:00:51.324Z,21.35
2022-10-22T01:01:53.697Z,21.73
2022-10-22T01:02:57.998Z,22.17
2022-10-22T01:04:00.836Z,21.60
2022-10-22T01:05:03.858Z,22.55
2022-10-22T01:06:07.097Z,21.92
2022-10-22T01:07:17.719Z,19.40
2022-10-22T01:08:26.233Z,22.85
2022-10-22T01:09:47.153Z,22.98
2022-10-22T01:11:15.101Z,22.63
2022-10-22T01:12:17.292Z,22.13
2022-10-22T01:13:59.924Z,18.90
2022-10-22T01:15:24.831Z,20.33
2022-10-22T01:16:34.266Z,20.27
2022-10-22T01:17:49.863Z,20.55
2022-10-22T01:19:10.961Z,23.83
2022-10-22T01:20:45.547Z,20.63
2022-10-22T01:21:56.419Z,20.40
2022-10-22T01:23:17.757Z,21.08
2022-10-22T01:24:39.877Z,23.30
2022-10-22T01:26:00.709Z,20.45
2022-10-22T01:27:19.401Z,18.33
2022-10-22T01:28:45.780Z,22.40
2022-10-22T01:30:03.305Z,17.20
2022-10-22T01:31:07.593Z,22.40
2022-10-22T01:32:18.890Z,21.40
2022-10-22T01:33:23.839Z,21.13
2022-10-22T01:34:28.202Z,20.52
2022-10-22T01:35:35.622Z,21.70
2022-10-22T01:36:39.440Z,22.13
2022-10-22T01:37:55.803Z,20.63
2022-10-22T01:39:00.916Z,21.23
2022-10-22T01:40:04.797Z,21.95
2022-10-22T01:41:08.176Z,20.85
2022-10-22T01:42:12.846Z,19.88
2022-10-22T01:43:15.403Z,22.73
2022-10-22T01:44:32.706Z,22.85
2022-10-22T01:45:42.480Z,20.70
2022-10-22T01:46:50.913Z,21.30
2022-10-22T01:48:16.320Z,20.45
2022-10-22T01:49:32.870Z,19.52
2022-10-22T01:51:50.247Z,19.45
2022-10-22T01:52:58.458Z,21.88
2022-10-22T01:54:33.853Z,24.35
2022-10-22T01:55:57.204Z,22.35
2022-10-22T01:57:14.497Z,21.35
2022-10-22T01:58:35.327Z,22.83
2022-10-22T02:00:03.077Z,22.27
2022-10-22T02:01:32.821Z,20.30
2022-10-22T02:04:08.651Z,25.38
2022-10-22T02:05:19.588Z,24.40
2022-10-22T02:06:25.011Z,26.10
2022-10-22T02:07:32.762Z,29.25
2022-10-22T02:08:36.431Z,27.40
2022-10-22T02:09:40.156Z,28.50
2022-10-22T02:10:45.170Z,20.88
2022-10-22T02:11:48.671Z,40.45
2022-10-22T02:12:53.682Z,20.55
2022-10-22T02:14:01.470Z,21.05
2022-10-22T02:15:05.022Z,22.25
2022-10-22T02:16:09.941Z,20.42
2022-10-22T02:17:18.501Z,20.30
2022-10-22T02:18:23.753Z,20.88
2022-10-22T02:19:30.769Z,21.23
2022-10-22T02:20:35.569Z,22.55
2022-10-22T02:21:38.095Z,21.02
2022-10-22T02:22:40.879Z,19.05
2022-10-22T02:23:44.263Z,21.17
2022-10-22T02:24:49.265Z,23.17
2022-10-22T02:25:56.754Z,22.40
2022-10-22T02:27:06.881Z,21.05
2022-10-22T02:28:26.869Z,21.00
2022-10-22T02:29:39.672Z,20.63
2022-10-22T02:30:46.648Z,19.88
2022-10-22T02:31:51.855Z,20.85
2022-10-22T02:33:02.444Z,22.88
2022-10-22T02:34:10.604Z,21.10
2022-10-22T02:35:17.200Z,18.77
2022-10-22T02:36:20.780Z,19.23
2022-10-22T02:37:24.634Z,20.70
2022-10-22T02:38:28.395Z,21.63
2022-10-22T02:39:32.477Z,22.23
2022-10-22T02:40:34.895Z,21.55
2022-10-22T02:41:38.097Z,21.23
2022-10-22T02:42:42.527Z,21.40
2022-10-22T02:43:50.749Z,18.92
2022-10-22T02:44:53.221Z,22.17
2022-10-22T02:45:55.547Z,23.63
2022-10-22T02:46:58.602Z,20.30
2022-10-22T02:48:01.092Z,19.58
2022-10-22T02:49:03.307Z,22.08
2022-10-22T02:50:09.429Z,26.38
2022-10-22T02:51:12.894Z,20.55
2022-10-22T02:52:15.128Z,23.80
2022-10-22T02:53:17.454Z,22.83
2022-10-22T02:54:20.050Z,22.90
2022-10-22T02:55:22.339Z,23.17
2022-10-22T02:56:24.653Z,23.27
2022-10-22T02:57:27.165Z,20.02
2022-10-22T02:58:29.458Z,20.13
2022-10-22T02:59:31.843Z,22.48
2022-10-22T03:00:34.184Z,20.08
2022-10-22T03:01:36.356Z,22.15
2022-10-22T03:02:38.683Z,23.48
2022-10-22T03:03:41.023Z,21.70
2022-10-22T03:04:43.384Z,22.70
2022-10-22T03:05:45.728Z,20.05
2022-10-22T03:06:49.235Z,22.50
2022-10-22T03:07:51.783Z,21.27
2022-10-22T03:08:54.087Z,20.65
2022-10-22T03:09:56.383Z,23.50
2022-10-22T03:10:58.671Z,19.38
2022-10-22T03:12:00.953Z,21.98
2022-10-22T03:13:03.208Z,22.15
2022-10-22T03:14:05.449Z,21.63
2022-10-22T03:15:08.237Z,25.42
2022-10-22T03:16:10.904Z,29.05
2022-10-22T03:17:13.249Z,26.02
2022-10-22T03:18:15.606Z,30.27
2022-10-22T03:19:17.979Z,27.63
2022-10-22T03:20:20.273Z,26.45
2022-10-22T03:21:39.892Z,29.70
2022-10-22T03:22:43.427Z,27.20
2022-10-22T03:23:45.790Z,25.98
2022-10-22T03:24:53.759Z,26.13
2022-10-22T03:25:55.988Z,27.50
2022-10-22T03:26:58.610Z,29.27
2022-10-22T03:28:07.134Z,26.77
2022-10-22T03:29:12.834Z,31.88
2022-10-22T03:30:15.583Z,33.03
2022-10-22T03:31:17.831Z,35.15
2022-10-22T03:32:20.141Z,26.65
2022-10-22T03:33:22.452Z,32.22
2022-10-22T03:34:24.893Z,28.30
2022-10-22T03:35:27.316Z,31.38
2022-10-22T03:36:29.703Z,29.63
2022-10-22T03:37:33.322Z,24.95
2022-10-22T03:38:37.866Z,26.92
2022-10-22T03:39:40.471Z,29.05
2022-10-22T03:40:44.620Z,23.35
2022-10-22T03:41:49.637Z,25.08
2022-10-22T03:42:51.809Z,25.90
2022-10-22T03:43:54.504Z,22.23
2022-10-22T03:44:56.781Z,24.58
2022-10-22T03:45:59.235Z,20.20
2022-10-22T03:47:02.741Z,26.63
2022-10-22T03:48:05.717Z,20.90
2022-10-22T03:49:07.986Z,24.85
2022-10-22T03:50:10.719Z,23.55
2022-10-22T03:51:13.317Z,24.40
2022-10-22T03:52:16.071Z,23.02
2022-10-22T03:53:18.548Z,21.42
2022-10-22T03:54:21.005Z,23.95
2022-10-22T03:55:23.271Z,25.45
2022-10-22T03:56:25.857Z,23.15
2022-10-22T03:57:28.604Z,22.55
2022-10-22T03:58:30.893Z,26.52
2022-10-22T03:59:38.786Z,21.17
2022-10-22T04:00:41.134Z,22.92
2022-10-22T04:01:43.254Z,23.42
2022-10-22T04:02:45.591Z,23.33
2022-10-22T04:03:47.838Z,23.00
2022-10-22T04:04:50.074Z,21.67
2022-10-22T04:05:52.375Z,20.95
2022-10-22T04:06:55.084Z,22.60
2022-10-22T04:07:57.691Z,21.27
2022-10-22T04:09:01.422Z,26.33
2022-10-22T04:10:04.612Z,21.00
2022-10-22T04:11:07.754Z,21.27
2022-10-22T04:12:10.404Z,20.85
2022-10-22T04:13:12.710Z,23.25
2022-10-22T04:14:15.041Z,23.85
2022-10-22T04:15:18.087Z,23.95
2022-10-22T04:16:25.008Z,23.00
2022-10-22T04:17:37.177Z,21.92
2022-10-22T04:18:40.514Z,21.55
2022-10-22T04:19:42.755Z,23.95
2022-10-22T04:20:45.574Z,21.40
2022-10-22T04:21:47.839Z,23.55
2022-10-22T04:22:50.120Z,21.52
2022-10-22T04:23:53.568Z,22.83
2022-10-22T04:24:56.117Z,19.88
2022-10-22T04:26:03.707Z,26.30
2022-10-22T04:27:06.052Z,19.30
2022-10-22T04:28:09.759Z,24.70
2022-10-22T04:29:15.926Z,25.20
2022-10-22T04:30:18.821Z,27.95
2022-10-22T04:31:23.780Z,23.80
2022-10-22T04:32:29.027Z,28.45
2022-10-22T04:33:31.237Z,25.60
2022-10-22T04:34:33.520Z,25.30
2022-10-22T04:35:40.039Z,31.25
2022-10-22T04:36:43.154Z,25.85
2022-10-22T04:37:45.433Z,32.78
2022-10-22T04:38:53.222Z,30.55
2022-10-22T04:39:58.051Z,30.38
2022-10-22T04:41:09.994Z,29.33
2022-10-22T04:42:12.857Z,26.80
2022-10-22T04:43:15.088Z,26.85
2022-10-22T04:44:18.372Z,29.38
2022-10-22T04:45:21.151Z,25.10
2022-10-22T04:46:25.741Z,28.15
2022-10-22T04:47:28.016Z,26.45
2022-10-22T04:48:30.612Z,28.05
2022-10-22T04:49:33.024Z,29.88
2022-10-22T04:50:36.010Z,32.25
2022-10-22T04:51:38.678Z,32.50
2022-10-22T04:52:40.953Z,38.63
2022-10-22T04:53:44.044Z,33.55
2022-10-22T04:54:47.370Z,36.72
2022-10-22T04:55:49.611Z,35.50
2022-10-22T04:56:52.261Z,39.70
2022-10-22T04:57:54.590Z,34.22
2022-10-22T04:59:08.450Z,31.83
2022-10-22T05:00:11.438Z,39.92
2022-10-22T05:01:17.238Z,34.63
2022-10-22T05:02:19.450Z,38.67
2022-10-22T05:03:21.650Z,33.45
2022-10-22T05:04:23.929Z,34.90
2022-10-22T05:05:26.177Z,31.23
2022-10-22T05:06:30.296Z,29.80
2022-10-22T05:07:32.521Z,38.50
2022-10-22T05:08:36.228Z,34.92
2022-10-22T05:09:39.253Z,31.85
2022-10-22T05:10:41.518Z,29.83
2022-10-22T05:11:48.742Z,31.80
2022-10-22T05:12:51.347Z,34.15
2022-10-22T05:13:56.132Z,30.38
2022-10-22T05:15:00.840Z,29.90
2022-10-22T05:16:05.245Z,32.13
2022-10-22T05:17:07.676Z,25.02
2022-10-22T05:18:10.006Z,25.88
2022-10-22T05:19:18.242Z,27.42
2022-10-22T05:20:20.495Z,30.85
2022-10-22T05:21:22.777Z,27.67
2022-10-22T05:22:25.029Z,31.40
2022-10-22T05:23:28.375Z,31.13
2022-10-22T05:24:32.199Z,27.13
2022-10-22T05:25:38.902Z,25.92
2022-10-22T05:26:41.295Z,28.55
2022-10-22T05:27:43.675Z,30.40
2022-10-22T05:28:48.155Z,30.60
2022-10-22T05:29:50.576Z,27.60
2022-10-22T05:30:57.107Z,27.70
2022-10-22T05:31:59.573Z,34.28
2022-10-22T05:33:01.830Z,31.67
2022-10-22T05:34:04.420Z,30.48
2022-10-22T05:35:06.840Z,33.28
2022-10-22T05:36:12.919Z,32.40
2022-10-22T05:37:15.176Z,36.53
2022-10-22T05:38:18.368Z,39.97
2022-10-22T05:39:20.664Z,34.33
2022-10-22T05:40:30.434Z,35.97
2022-10-22T05:41:34.513Z,32.90
2022-10-22T05:42:36.719Z,35.53
2022-10-22T05:43:39.463Z,34.53
2022-10-22T05:44:41.683Z,36.55
2022-10-22T05:45:44.013Z,33.50
2022-10-22T05:46:46.270Z,29.77
2022-10-22T05:47:48.582Z,35.25
2022-10-22T05:48:52.942Z,34.33
2022-10-22T05:49:57.378Z,35.42
2022-10-22T05:51:06.727Z,30.38
2022-10-22T05:52:08.932Z,30.65
2022-10-22T05:53:11.871Z,34.90
2022-10-22T05:54:22.472Z,31.05
2022-10-22T05:56:30.423Z,33.95
2022-10-22T05:57:32.736Z,31.30
2022-10-22T05:58:35.556Z,34.33
2022-10-22T05:59:37.991Z,41.22
2022-10-22T06:00:40.408Z,52.50
2022-10-22T06:01:43.085Z,81.80
2022-10-22T06:02:50.793Z,77.18
2022-10-22T06:03:54.572Z,78.32
2022-10-22T06:04:57.080Z,67.60
2022-10-22T06:06:04.988Z,53.25
2022-10-22T06:07:15.412Z,53.70
2022-10-22T06:08:19.129Z,58.45
2022-10-22T06:09:50.855Z,60.72
2022-10-22T06:10:53.189Z,51.25
2022-10-22T06:11:57.131Z,36.88
2022-10-22T06:13:01.685Z,41.35
2022-10-22T06:14:04.637Z,35.80
2022-10-22T06:15:07.749Z,37.95
2022-10-22T06:16:09.968Z,45.00
2022-10-22T06:17:13.286Z,32.72
2022-10-22T06:18:15.652Z,32.08
2022-10-22T06:19:20.023Z,25.10
2022-10-22T06:20:22.255Z,26.08
2022-10-22T06:21:24.577Z,25.85
2022-10-22T06:22:26.829Z,24.55
2022-10-22T06:23:29.111Z,29.48
2022-10-22T06:24:31.496Z,22.95
2022-10-22T06:25:33.910Z,33.10
2022-10-22T06:26:36.481Z,40.90
2022-10-22T06:27:39.442Z,43.55
2022-10-22T06:28:41.632Z,43.58
2022-10-22T06:29:44.093Z,41.53
2022-10-22T06:30:46.729Z,31.65
2022-10-22T06:31:49.487Z,30.23
2022-10-22T06:32:51.818Z,34.72
2022-10-22T06:33:58.165Z,36.90
2022-10-22T06:35:00.516Z,33.40
2022-10-22T06:36:10.673Z,29.75
2022-10-22T06:37:14.058Z,27.90
2022-10-22T06:38:16.364Z,20.10
2022-10-22T06:39:18.598Z,19.73
2022-10-22T06:40:21.104Z,22.33
2022-10-22T06:41:28.540Z,21.77
2022-10-22T06:42:31.780Z,19.85
2022-10-22T06:43:34.012Z,21.60
2022-10-22T06:44:36.305Z,24.13
2022-10-22T06:45:39.377Z,18.48
2022-10-22T06:46:43.658Z,21.67
2022-10-22T06:47:48.582Z,19.00
2022-10-22T06:48:53.998Z,20.27
2022-10-22T06:49:56.264Z,19.77
2022-10-22T06:51:03.621Z,18.67
2022-10-22T06:52:05.949Z,18.42
2022-10-22T06:53:08.327Z,19.63
2022-10-22T06:54:11.192Z,20.92
2022-10-22T06:55:13.727Z,21.65
2022-10-22T06:56:19.505Z,19.38
2022-10-22T06:57:21.915Z,21.00
2022-10-22T06:58:24.432Z,18.83
2022-10-22T06:59:26.831Z,21.60
2022-10-22T07:00:29.444Z,19.70
2022-10-22T07:01:34.369Z,20.02
2022-10-22T07:02:36.738Z,21.45
2022-10-22T07:03:40.681Z,18.23
2022-10-22T07:04:43.039Z,18.20
2022-10-22T07:05:45.582Z,21.73
2022-10-22T07:06:47.958Z,18.83
2022-10-22T07:07:50.257Z,19.05
2022-10-22T07:08:54.516Z,16.25
2022-10-22T07:09:57.066Z,19.65
2022-10-22T07:11:18.491Z,19.67
2022-10-22T07:12:20.793Z,15.23
2022-10-22T07:13:23.297Z,19.38
2022-10-22T07:14:25.521Z,16.80
2022-10-22T07:15:27.933Z,20.63
2022-10-22T07:16:32.515Z,17.50
2022-10-22T07:17:35.019Z,17.17
2022-10-22T07:18:38.875Z,13.10
2022-10-22T07:19:41.161Z,17.90
2022-10-22T07:20:43.850Z,15.57
2022-10-22T07:21:46.360Z,15.10
2022-10-22T07:22:49.429Z,15.68
2022-10-22T07:23:51.864Z,19.70
2022-10-22T07:24:54.154Z,18.80
2022-10-22T07:27:07.027Z,15.18
2022-10-22T07:28:12.211Z,18.75
2022-10-22T07:29:15.766Z,15.75
2022-10-22T07:30:18.401Z,16.73
2022-10-22T07:31:20.809Z,20.75
2022-10-22T07:32:23.904Z,14.63
2022-10-22T07:33:26.844Z,17.90
2022-10-22T07:34:29.779Z,13.93
2022-10-22T07:35:32.333Z,16.83
2022-10-22T07:36:34.735Z,19.58
2022-10-22T07:37:37.040Z,14.80
2022-10-22T07:38:39.542Z,15.13
2022-10-22T07:39:42.248Z,14.27
2022-10-22T07:40:44.534Z,14.85
2022-10-22T07:41:46.732Z,13.73
2022-10-22T07:42:49.039Z,15.68
2022-10-22T07:43:51.352Z,14.43
2022-10-22T07:44:53.621Z,15.88
2022-10-22T07:45:56.125Z,18.42
2022-10-22T07:46:58.463Z,14.50
2022-10-22T07:48:01.957Z,14.38
2022-10-22T07:49:04.326Z,14.40
2022-10-22T07:50:08.011Z,15.73
2022-10-22T07:51:10.308Z,14.98
2022-10-22T07:52:13.374Z,15.45
2022-10-22T07:53:15.764Z,14.98
2022-10-22T07:54:19.477Z,15.15
2022-10-22T07:55:22.026Z,14.98
2022-10-22T07:56:24.448Z,16.20
2022-10-22T07:57:26.912Z,16.60
2022-10-22T07:58:29.329Z,12.77
2022-10-22T07:59:31.778Z,13.98
2022-10-22T08:00:34.139Z,15.07
2022-10-22T08:01:36.442Z,16.40
2022-10-22T08:02:39.492Z,15.15
2022-10-22T08:03:42.113Z,16.20
2022-10-22T08:04:44.587Z,15.82
2022-10-22T08:05:47.763Z,16.83
2022-10-22T08:06:52.974Z,22.55
2022-10-22T08:07:55.339Z,16.15
2022-10-22T08:08:57.705Z,15.60
2022-10-22T08:10:00.057Z,14.77
2022-10-22T08:11:02.678Z,15.18
2022-10-22T08:12:05.705Z,13.65
2022-10-22T08:13:08.576Z,15.00
2022-10-22T08:14:11.244Z,15.65
2022-10-22T08:15:13.865Z,15.15
2022-10-22T08:16:16.255Z,15.38
2022-10-22T08:17:18.723Z,18.45
2022-10-22T08:18:21.244Z,16.60
2022-10-22T08:19:23.542Z,15.55
2022-10-22T08:20:25.984Z,14.82
2022-10-22T08:21:28.269Z,16.65
2022-10-22T08:22:30.834Z,13.77
2022-10-22T08:23:33.152Z,14.40
2022-10-22T08:24:35.427Z,13.38
2022-10-22T08:25:37.706Z,14.13
2022-10-22T08:26:40.557Z,11.95
2022-10-22T08:27:43.213Z,12.68
2022-10-22T08:28:45.999Z,13.60
2022-10-22T08:29:48.285Z,13.90
2022-10-22T08:30:50.653Z,16.90
2022-10-22T08:31:54.176Z,14.80
2022-10-22T08:32:56.984Z,13.40
2022-10-22T08:33:59.208Z,19.65
2022-10-22T08:35:01.516Z,11.15
2022-10-22T08:36:04.320Z,16.58
2022-10-22T08:37:08.607Z,22.88
2022-10-22T08:38:11.476Z,20.02
2022-10-22T08:39:14.462Z,22.70
2022-10-22T08:40:26.102Z,14.80
2022-10-22T08:41:28.589Z,12.60
2022-10-22T08:42:50.828Z,19.60
2022-10-22T08:44:08.216Z,17.52
2022-10-22T08:45:16.450Z,10.88
2022-10-22T08:46:39.227Z,12.90
2022-10-22T08:48:19.300Z,17.13
2022-10-22T08:49:26.770Z,15.70
2022-10-22T08:50:52.051Z,12.85
2022-10-22T08:51:56.254Z,15.90
2022-10-22T08:53:01.305Z,12.25
2022-10-22T08:54:21.970Z,13.15
2022-10-22T08:55:25.296Z,17.02
2022-10-22T08:56:27.750Z,13.10
2022-10-22T08:57:41.837Z,14.25
2022-10-22T08:59:04.362Z,15.95
2022-10-22T09:00:11.735Z,15.18
2022-10-22T09:01:18.818Z,13.25
2022-10-22T09:02:58.630Z,10.82
2022-10-22T09:04:06.804Z,16.08
2022-10-22T09:05:32.327Z,10.65
2022-10-22T09:06:37.855Z,14.27
2022-10-22T09:07:43.994Z,14.50
2022-10-22T09:08:47.903Z,12.07
2022-10-22T09:09:53.450Z,14.45
2022-10-22T09:11:07.278Z,10.45
2022-10-22T09:12:20.121Z,13.52
2022-10-22T09:13:24.129Z,12.68
2022-10-22T09:14:26.804Z,12.02
2022-10-22T09:15:31.513Z,14.52
2022-10-22T09:16:36.305Z,16.08
2022-10-22T09:17:59.870Z,14.13
2022-10-22T09:19:02.100Z,14.20
2022-10-22T09:20:16.065Z,13.05
2022-10-22T09:21:24.654Z,18.27
2022-10-22T09:23:04.988Z,13.60
2022-10-22T09:24:33.231Z,15.18
2022-10-22T09:25:37.162Z,20.08
2022-10-22T09:26:41.489Z,15.43
2022-10-22T09:27:44.343Z,13.68
2022-10-22T09:28:51.390Z,13.43
2022-10-22T09:29:54.066Z,18.67
2022-10-22T09:32:04.293Z,17.95
2022-10-22T09:33:06.353Z,19.20
2022-10-22T09:34:08.694Z,23.95
2022-10-22T09:35:14.015Z,14.30
2022-10-22T09:36:19.154Z,13.98
2022-10-22T09:37:26.617Z,15.70
2022-10-22T09:38:32.728Z,16.23
2022-10-22T09:39:41.237Z,16.70
2022-10-22T09:40:46.914Z,17.90
2022-10-22T09:41:49.581Z,19.08
2022-10-22T09:42:51.868Z,18.00
2022-10-22T09:43:54.139Z,14.48
2022-10-22T09:44:59.627Z,15.18
2022-10-22T09:46:05.844Z,19.27
2022-10-22T09:47:43.437Z,13.70
2022-10-22T09:48:58.979Z,22.42
2022-10-22T09:50:10.558Z,16.67
2022-10-22T09:51:16.660Z,15.70
2022-10-22T09:52:30.372Z,18.33
2022-10-22T09:53:39.085Z,20.48
2022-10-22T09:54:43.038Z,15.50
2022-10-22T09:55:51.299Z,16.00
2022-10-22T09:56:55.375Z,16.77
2022-10-22T09:58:00.243Z,16.90
2022-10-22T09:59:03.298Z,15.20
2022-10-22T10:00:09.992Z,18.20
2022-10-22T10:01:22.592Z,20.50
2022-10-22T10:02:43.977Z,19.65
2022-10-22T10:03:48.930Z,19.55
2022-10-22T10:04:54.399Z,20.85
2022-10-22T10:06:03.071Z,19.17
2022-10-22T10:07:24.648Z,18.70
2022-10-22T10:08:27.184Z,21.48
2022-10-22T10:09:32.246Z,20.30
2022-10-22T10:10:58.981Z,22.65
2022-10-22T10:12:18.899Z,21.05
2022-10-22T10:13:42.231Z,19.70
2022-10-22T10:15:08.627Z,18.55
2022-10-22T10:16:47.756Z,24.08
2022-10-22T10:18:02.938Z,22.27
2022-10-22T10:19:08.200Z,20.63
2022-10-22T10:20:24.331Z,23.25
2022-10-22T10:21:45.384Z,23.02
2022-10-22T10:23:06.247Z,21.05
2022-10-22T10:24:22.582Z,30.27
2022-10-22T10:25:32.891Z,21.38
2022-10-22T10:26:43.444Z,22.55
2022-10-22T10:28:13.723Z,23.40
2022-10-22T10:29:30.227Z,22.55
2022-10-22T10:30:34.456Z,23.77
2022-10-22T10:31:37.897Z,21.73
2022-10-22T10:32:43.505Z,19.67
2022-10-22T10:33:49.446Z,20.25
2022-10-22T10:34:51.917Z,21.73
2022-10-22T10:36:05.306Z,22.95
2022-10-22T10:37:25.571Z,23.83
2022-10-22T10:38:43.289Z,21.42
2022-10-22T10:40:00.879Z,25.05
2022-10-22T10:41:08.860Z,23.98
2022-10-22T10:42:49.532Z,25.10
2022-10-22T10:44:05.819Z,21.75
2022-10-22T10:45:20.500Z,25.42
2022-10-22T10:46:42.723Z,22.85
2022-10-22T10:48:36.190Z,23.08
2022-10-22T10:49:38.645Z,22.90
2022-10-22T10:50:49.955Z,24.98
2022-10-22T10:52:01.710Z,27.77
2022-10-22T10:53:17.405Z,23.98
2022-10-22T10:54:47.844Z,20.55
2022-10-22T10:56:01.533Z,20.75
2022-10-22T10:57:09.953Z,22.35
2022-10-22T10:59:04.901Z,21.73
2022-10-22T11:00:12.737Z,22.02
2022-10-22T11:01:39.936Z,21.95
2022-10-22T11:02:57.868Z,23.80
2022-10-22T11:04:14.049Z,26.20
2022-10-22T11:05:25.463Z,24.27
2022-10-22T11:06:31.752Z,21.45
2022-10-22T11:08:06.719Z,23.30
2022-10-22T11:09:22.043Z,22.63
2022-10-22T11:10:41.183Z,22.55
2022-10-22T11:12:02.818Z,25.20
2022-10-22T11:13:21.448Z,23.02
2022-10-22T11:14:31.856Z,22.85
2022-10-22T11:15:39.985Z,23.13
2022-10-22T11:16:59.398Z,22.33
2022-10-22T11:18:44.309Z,24.02
2022-10-22T11:20:17.049Z,27.88
2022-10-22T11:21:27.587Z,26.00
2022-10-22T11:23:16.959Z,28.65
2022-10-22T11:25:32.546Z,24.90
2022-10-22T11:26:49.092Z,26.13
2022-10-22T11:28:04.662Z,24.30
2022-10-22T11:29:16.003Z,26.45
2022-10-22T11:30:21.714Z,26.25
2022-10-22T11:31:28.382Z,25.15
2022-10-22T11:32:33.539Z,25.92
2022-10-22T11:34:00.451Z,24.10
2022-10-22T11:35:22.220Z,23.52
2022-10-22T11:36:29.505Z,24.83
2022-10-22T11:37:35.100Z,25.77
2022-10-22T11:38:38.428Z,24.05
2022-10-22T11:39:55.770Z,25.42
2022-10-22T11:41:04.822Z,27.63
2022-10-22T11:42:11.496Z,26.90
2022-10-22T11:43:55.383Z,26.83
2022-10-22T11:45:14.299Z,25.17
2022-10-22T11:46:16.646Z,26.48
2022-10-22T11:47:24.707Z,25.98
2022-10-22T11:48:28.808Z,23.63
2022-10-22T11:50:55.182Z,27.77
2022-10-22T11:52:23.999Z,26.05
2022-10-22T11:53:26.223Z,28.70
2022-10-22T11:54:42.387Z,26.20
2022-10-22T11:55:48.967Z,26.80
2022-10-22T11:57:19.288Z,30.73
2022-10-22T11:58:50.739Z,25.65
2022-10-22T12:00:01.979Z,25.27
2022-10-22T12:01:16.011Z,28.00
2022-10-22T12:02:28.957Z,24.25
2022-10-22T12:03:31.175Z,24.08
2022-10-22T12:04:43.174Z,24.95
2022-10-22T12:05:46.893Z,25.48
2022-10-22T12:07:02.534Z,26.75
2022-10-22T12:08:14.832Z,24.75
2022-10-22T12:09:19.650Z,29.88
2022-10-22T12:10:27.799Z,27.20
2022-10-22T12:11:37.644Z,23.58
2022-10-22T12:12:40.598Z,24.90
2022-10-22T12:14:29.937Z,29.52
2022-10-22T12:15:32.405Z,25.55
2022-10-22T12:17:01.231Z,28.98
2022-10-22T12:18:06.150Z,24.08
2022-10-22T12:19:11.442Z,28.00
2022-10-22T12:20:14.497Z,30.80
2022-10-22T12:21:17.498Z,28.73
2022-10-22T12:22:23.609Z,26.98
2022-10-22T12:23:30.951Z,28.13
2022-10-22T12:24:41.064Z,27.27
2022-10-22T12:25:43.233Z,26.75
2022-10-22T12:26:47.162Z,30.80
2022-10-22T12:29:02.275Z,25.98
2022-10-22T12:30:30.320Z,28.83
2022-10-22T12:31:38.278Z,29.88
2022-10-22T12:32:41.573Z,30.10
2022-10-22T12:33:44.083Z,34.15
2022-10-22T12:35:57.713Z,28.20
2022-10-22T12:37:00.081Z,32.38
2022-10-22T12:38:08.395Z,32.50
2022-10-22T12:39:17.339Z,29.88
2022-10-22T12:40:43.332Z,28.00
2022-10-22T12:41:48.697Z,29.88
2022-10-22T12:42:56.773Z,23.27
2022-10-22T12:44:03.613Z,24.63
2022-10-22T12:45:06.335Z,28.33
2022-10-22T12:46:14.641Z,27.45
2022-10-22T12:47:18.597Z,25.92
2022-10-22T12:48:25.249Z,27.52
2022-10-22T12:49:38.547Z,26.70
2022-10-22T12:50:43.038Z,27.92
2022-10-22T12:51:46.423Z,24.00
2022-10-22T12:52:49.554Z,27.60
2022-10-22T12:53:57.217Z,25.50
2022-10-22T12:54:59.448Z,29.17
2022-10-22T12:56:04.351Z,32.63
2022-10-22T12:57:11.804Z,29.42
2022-10-22T12:58:19.751Z,31.58
2022-10-22T12:59:33.020Z,32.63
2022-10-22T13:00:36.445Z,34.50
2022-10-22T13:01:41.784Z,32.42
2022-10-22T13:02:45.631Z,35.58
2022-10-22T13:04:03.560Z,35.88
2022-10-22T13:05:15.188Z,31.88
2022-10-22T13:06:20.414Z,28.23
2022-10-22T13:07:22.967Z,31.65
2022-10-22T13:08:29.335Z,29.50
2022-10-22T13:09:43.682Z,31.20
2022-10-22T13:10:53.982Z,38.53
2022-10-22T13:12:06.909Z,30.55
2022-10-22T13:13:42.678Z,40.95
2022-10-22T13:14:46.182Z,47.70
2022-10-22T13:15:48.447Z,50.10
2022-10-22T13:17:16.088Z,44.85
2022-10-22T13:18:21.870Z,51.40
2022-10-22T13:19:56.968Z,52.83
2022-10-22T13:21:03.188Z,54.58
2022-10-22T13:22:05.436Z,61.17
2022-10-22T13:23:20.319Z,59.80
2022-10-22T13:24:24.909Z,52.97
2022-10-22T13:25:39.895Z,56.08
2022-10-22T13:26:42.068Z,54.45
2022-10-22T13:27:45.936Z,55.85
2022-10-22T13:28:53.803Z,53.78
2022-10-22T13:29:58.970Z,56.70
2022-10-22T13:31:09.292Z,57.53
2022-10-22T13:32:30.888Z,50.03
2022-10-22T13:33:34.911Z,47.13
2022-10-22T13:34:37.662Z,45.78
2022-10-22T13:35:39.989Z,46.63
2022-10-22T13:36:42.315Z,51.63
2022-10-22T13:37:44.954Z,46.10
2022-10-22T13:38:47.267Z,40.35
2022-10-22T13:39:49.497Z,42.92
2022-10-22T13:40:52.129Z,44.35
2022-10-22T13:41:54.374Z,41.08
2022-10-22T13:42:56.607Z,41.30
2022-10-22T13:43:59.511Z,41.28
2022-10-22T13:45:01.795Z,42.30
2022-10-22T13:46:05.928Z,45.08
2022-10-22T13:47:24.810Z,45.80
2022-10-22T13:48:29.858Z,46.58
2022-10-22T13:49:32.031Z,49.70
2022-10-22T13:50:34.291Z,50.65
2022-10-22T13:51:36.853Z,51.67
2022-10-22T13:52:42.691Z,51.65
2022-10-22T13:53:47.659Z,57.08
2022-10-22T13:54:49.842Z,54.65
2022-10-22T13:55:52.125Z,53.38
2022-10-22T13:56:54.663Z,56.60
2022-10-22T13:58:01.814Z,54.88
2022-10-22T13:59:04.100Z,59.88
2022-10-22T14:00:07.595Z,50.55
2022-10-22T14:01:26.946Z,41.92
2022-10-22T14:02:29.300Z,42.15
2022-10-22T14:03:37.438Z,47.25
2022-10-22T14:04:41.649Z,44.10
2022-10-22T14:06:48.159Z,44.75
2022-10-22T14:07:51.347Z,46.42
2022-10-22T14:08:58.667Z,43.13
2022-10-22T14:10:00.917Z,41.70
2022-10-22T14:11:03.099Z,43.08
2022-10-22T14:12:16.643Z,43.28
2022-10-22T14:13:20.417Z,44.85
2022-10-22T14:14:22.648Z,38.45
2022-10-22T14:15:28.570Z,45.13
2022-10-22T14:16:33.338Z,60.00
2022-10-22T14:17:35.629Z,56.30
2022-10-22T14:18:38.060Z,63.67
2022-10-22T14:19:40.360Z,65.53
2022-10-22T14:20:43.377Z,56.55
2022-10-22T14:21:45.771Z,65.68
2022-10-22T14:22:50.007Z,60.95
2022-10-22T14:23:54.272Z,54.67
2022-10-22T14:24:56.827Z,67.32
2022-10-22T14:26:00.144Z,64.82
2022-10-22T14:27:02.526Z,74.60
2022-10-22T14:28:05.227Z,66.00
2022-10-22T14:29:09.711Z,64.10
2022-10-22T14:30:20.105Z,70.80
2022-10-22T14:31:22.565Z,63.55
2022-10-22T14:32:24.850Z,69.95
2022-10-22T14:33:32.883Z,70.10
2022-10-22T14:34:35.571Z,68.75
2022-10-22T14:35:39.175Z,66.07
2022-10-22T14:36:44.037Z,71.35
2022-10-22T14:37:47.536Z,72.53